createdAt,value
2019-03-19T00:00:06.648Z,71.50
2019-03-19T00:02:38.799Z,70.80
2019-03-19T00:05:07.656Z,70.60
2019-03-19T00:07:36.848Z,70.70
2019-03-19T00:10:06.811Z,70.60
2019-03-19T00:12:36.156Z,70.60
2019-03-19T00:15:05.320Z,70.70
2019-03-19T00:17:34.091Z,71.10
2019-03-19T00:20:03.246Z,70.90
2019-03-19T00:22:32.305Z,70.50
2019-03-19T00:25:01.094Z,70.50
2019-03-19T00:27:30.098Z,70.80
2019-03-19T00:29:58.891Z,70.80
2019-03-19T00:32:27.927Z,70.90
2019-03-19T00:34:57.087Z,71.30
2019-03-19T00:37:26.095Z,70.90
2019-03-19T00:39:54.855Z,71.00
2019-03-19T00:42:23.635Z,71.10
2019-03-19T00:44:52.471Z,71.10
2019-03-19T00:47:21.575Z,71.20
2019-03-19T00:49:50.648Z,71.00
2019-03-19T00:52:19.425Z,70.90
2019-03-19T00:54:48.198Z,71.00
2019-03-19T00:57:17.263Z,71.30
2019-03-19T00:59:46.146Z,71.40
2019-03-19T01:02:15.181Z,72.00
2019-03-19T01:04:43.954Z,71.80
2019-03-19T01:07:12.719Z,72.10
2019-03-19T01:09:41.811Z,72.10
2019-03-19T01:12:11.100Z,72.30
2019-03-19T01:14:40.214Z,72.70
2019-03-19T01:17:09.030Z,72.30
2019-03-19T01:19:38.693Z,71.90
2019-03-19T01:22:08.111Z,71.60
2019-03-19T01:24:37.148Z,71.20
2019-03-19T01:27:06.600Z,71.60
2019-03-19T01:29:35.381Z,71.80
2019-03-19T01:32:04.148Z,71.90
2019-03-19T01:34:33.276Z,71.90
2019-03-19T01:37:02.457Z,72.00
2019-03-19T01:39:31.223Z,72.00
2019-03-19T01:41:59.993Z,72.00
2019-03-19T01:44:28.809Z,71.80
2019-03-19T01:46:57.588Z,71.60
2019-03-19T01:49:26.376Z,71.70
2019-03-19T01:51:55.148Z,72.00
2019-03-19T01:54:23.922Z,72.20
2019-03-19T01:56:52.699Z,72.00
2019-03-19T01:59:21.454Z,72.00
2019-03-19T02:01:50.218Z,72.00
2019-03-19T02:04:19.268Z,71.90
2019-03-19T02:06:48.047Z,71.80
2019-03-19T02:09:16.840Z,71.30
2019-03-19T02:11:45.594Z,71.80
2019-03-19T02:14:14.682Z,71.80
2019-03-19T02:16:43.760Z,71.40
2019-03-19T02:19:12.539Z,71.90
2019-03-19T02:21:41.298Z,72.00
2019-03-19T02:24:10.339Z,72.00
2019-03-19T02:26:39.450Z,73.10
2019-03-19T02:29:10.697Z,71.70
2019-03-19T02:31:38.707Z,71.90
2019-03-19T02:34:07.800Z,72.20
2019-03-19T02:36:36.896Z,71.80
2019-03-19T02:39:07.311Z,71.90
2019-03-19T02:41:36.081Z,72.00
2019-03-19T02:44:05.156Z,72.00
2019-03-19T02:46:33.950Z,71.80
2019-03-19T02:49:02.981Z,71.80
2019-03-19T02:51:31.755Z,71.80
2019-03-19T02:54:00.523Z,72.30
2019-03-19T02:56:33.153Z,72.30
2019-03-19T02:59:00.650Z,72.20
2019-03-19T03:01:29.491Z,71.80
2019-03-19T03:03:58.521Z,71.60
2019-03-19T03:06:27.628Z,71.90
2019-03-19T03:08:56.412Z,72.40
2019-03-19T03:11:25.537Z,72.60
2019-03-19T03:13:54.907Z,72.60
2019-03-19T03:16:23.775Z,72.90
2019-03-19T03:18:52.548Z,73.00
2019-03-19T03:21:21.343Z,72.90
2019-03-19T03:23:50.088Z,73.40
2019-03-19T03:26:18.863Z,73.40
2019-03-19T03:28:47.711Z,73.30
2019-03-19T03:31:16.613Z,73.10
2019-03-19T03:33:45.453Z,72.80
2019-03-19T03:36:14.381Z,73.20
2019-03-19T03:38:43.135Z,72.90
2019-03-19T03:41:12.210Z,73.00
2019-03-19T03:43:41.395Z,73.60
2019-03-19T03:46:10.274Z,73.90
2019-03-19T03:48:39.105Z,73.90
2019-03-19T03:51:08.583Z,73.90
2019-03-19T03:53:37.434Z,73.60
2019-03-19T03:56:06.625Z,73.40
2019-03-19T03:58:35.415Z,73.10
2019-03-19T04:01:04.535Z,73.10
2019-03-19T04:03:33.847Z,73.30
2019-03-19T04:06:02.957Z,73.60
2019-03-19T04:08:31.825Z,73.80
2019-03-19T04:11:00.987Z,73.90
2019-03-19T04:13:29.774Z,73.80
2019-03-19T04:15:58.836Z,73.80
2019-03-19T04:18:27.607Z,73.90
2019-03-19T04:20:56.404Z,73.70
2019-03-19T04:23:25.589Z,73.90
2019-03-19T04:25:54.506Z,73.90
2019-03-19T04:28:23.263Z,73.90
2019-03-19T04:30:52.316Z,74.20
2019-03-19T04:33:21.210Z,74.40
2019-03-19T04:35:50.350Z,74.70
2019-03-19T04:38:19.121Z,74.50
2019-03-19T04:40:49.629Z,74.40
2019-03-19T04:43:19.164Z,74.00
2019-03-19T04:45:47.939Z,74.00
2019-03-19T04:48:16.728Z,74.20
2019-03-19T04:50:45.515Z,74.80
2019-03-19T04:53:14.286Z,74.60
2019-03-19T04:55:43.634Z,74.40
2019-03-19T04:58:12.496Z,74.40
2019-03-19T05:00:41.354Z,74.40
2019-03-19T05:03:10.387Z,74.10
2019-03-19T05:05:39.222Z,73.90
2019-03-19T05:08:08.304Z,73.40
2019-03-19T05:10:37.064Z,73.60
2019-03-19T05:13:06.257Z,73.90
2019-03-19T05:15:35.006Z,74.20
2019-03-19T05:18:04.181Z,74.70
2019-03-19T05:20:32.940Z,75.20
2019-03-19T05:23:01.991Z,74.50
2019-03-19T05:25:30.780Z,74.80
2019-03-19T05:27:59.560Z,75.90
2019-03-19T05:30:28.325Z,75.40
2019-03-19T05:32:57.375Z,75.40
2019-03-19T05:35:26.469Z,75.10
2019-03-19T05:37:55.542Z,75.20
2019-03-19T05:40:24.328Z,75.10
2019-03-19T05:42:53.773Z,75.10
2019-03-19T05:45:22.561Z,75.70
2019-03-19T05:47:51.365Z,75.60
2019-03-19T05:50:20.194Z,75.40
2019-03-19T05:52:49.027Z,75.30
2019-03-19T05:55:17.833Z,75.20
2019-03-19T05:57:49.912Z,75.00
2019-03-19T06:00:17.881Z,75.00
2019-03-19T06:02:46.805Z,74.80
2019-03-19T06:05:16.024Z,75.10
2019-03-19T06:07:44.839Z,75.20
2019-03-19T06:10:13.695Z,75.00
2019-03-19T06:12:42.654Z,74.80
2019-03-19T06:15:11.603Z,74.70
2019-03-19T06:17:40.467Z,74.80
2019-03-19T06:20:10.349Z,74.90
2019-03-19T06:22:39.146Z,74.50
2019-03-19T06:25:08.939Z,74.60
2019-03-19T06:27:38.465Z,74.50
2019-03-19T06:30:10.244Z,74.30
2019-03-19T06:32:39.022Z,74.10
2019-03-19T06:35:08.887Z,74.00
2019-03-19T06:37:37.681Z,74.20
2019-03-19T06:40:07.568Z,74.20
2019-03-19T06:42:36.356Z,74.20
2019-03-19T06:45:05.580Z,74.20
2019-03-19T06:47:34.674Z,74.00
2019-03-19T06:50:03.753Z,74.30
2019-03-19T06:52:33.474Z,74.50
2019-03-19T06:55:02.520Z,74.70
2019-03-19T06:57:38.896Z,74.70
2019-03-19T07:00:02.169Z,74.70
2019-03-19T07:02:31.167Z,74.50
2019-03-19T07:04:59.948Z,74.50
2019-03-19T07:07:29.034Z,74.30
2019-03-19T07:09:57.812Z,74.30
2019-03-19T07:12:26.928Z,74.80
2019-03-19T07:14:55.766Z,75.30
2019-03-19T07:17:25.171Z,75.10
2019-03-19T07:19:54.352Z,75.50
2019-03-19T07:22:23.122Z,74.60
2019-03-19T07:24:51.892Z,74.40
2019-03-19T07:27:21.053Z,74.50
2019-03-19T07:29:49.823Z,74.30
2019-03-19T07:32:18.601Z,74.00
2019-03-19T07:34:47.595Z,73.70
2019-03-19T07:37:16.779Z,73.90
2019-03-19T07:39:46.134Z,73.40
2019-03-19T07:42:14.949Z,73.40
2019-03-19T07:44:44.451Z,73.40
2019-03-19T07:47:13.312Z,73.60
2019-03-19T07:49:42.456Z,74.00
2019-03-19T07:52:11.512Z,73.70
2019-03-19T07:54:41.090Z,73.80
2019-03-19T07:57:09.878Z,74.20
2019-03-19T07:59:38.713Z,74.10
2019-03-19T08:02:07.909Z,74.30
2019-03-19T08:04:36.692Z,74.80
2019-03-19T08:07:05.814Z,75.30
2019-03-19T08:09:35.777Z,74.40
2019-03-19T08:12:05.295Z,73.90
2019-03-19T08:14:34.089Z,74.00
2019-03-19T08:17:03.144Z,73.50
2019-03-19T08:19:32.025Z,73.40
2019-03-19T08:22:00.794Z,72.60
2019-03-19T08:24:30.119Z,73.20
2019-03-19T08:26:58.942Z,72.50
2019-03-19T08:29:28.038Z,72.70
2019-03-19T08:31:57.451Z,72.30
2019-03-19T08:34:26.234Z,72.00
2019-03-19T08:36:55.015Z,71.60
2019-03-19T08:39:24.077Z,71.70
2019-03-19T08:41:52.847Z,71.60
2019-03-19T08:44:27.643Z,72.70
2019-03-19T08:46:52.143Z,70.90
2019-03-19T08:49:22.391Z,71.30
2019-03-19T08:51:51.363Z,70.90
2019-03-19T08:54:20.136Z,70.40
2019-03-19T08:56:48.919Z,70.70
2019-03-19T08:59:18.310Z,70.90
2019-03-19T09:01:47.435Z,68.60
2019-03-19T09:04:16.240Z,67.90
2019-03-19T09:06:45.028Z,68.80
2019-03-19T09:09:14.482Z,68.60
2019-03-19T09:11:43.562Z,68.10
2019-03-19T09:14:12.336Z,67.20
2019-03-19T09:16:41.479Z,67.20
2019-03-19T09:19:10.325Z,67.60
2019-03-19T09:21:39.113Z,67.40
2019-03-19T09:24:08.232Z,67.90
2019-03-19T09:26:37.325Z,66.70
2019-03-19T09:29:16.092Z,66.90
2019-03-19T09:31:36.609Z,66.60
2019-03-19T09:34:05.395Z,65.50
2019-03-19T09:36:34.521Z,66.00
2019-03-19T09:39:05.477Z,66.80
2019-03-19T09:41:34.240Z,67.20
2019-03-19T09:44:03.345Z,66.30
2019-03-19T09:46:32.286Z,65.50
2019-03-19T09:49:01.452Z,63.10
2019-03-19T09:51:30.347Z,61.70
2019-03-19T09:53:59.256Z,62.20
2019-03-19T09:56:28.052Z,62.90
2019-03-19T09:58:56.923Z,61.50
2019-03-19T10:01:26.099Z,60.70
2019-03-19T10:03:55.136Z,61.50
2019-03-19T10:06:24.186Z,60.10
2019-03-19T10:08:53.373Z,60.20
2019-03-19T10:11:22.641Z,60.00
2019-03-19T10:13:51.778Z,60.70
2019-03-19T10:16:20.862Z,59.30
2019-03-19T10:18:50.180Z,59.40
2019-03-19T10:21:19.914Z,57.90
2019-03-19T10:23:49.088Z,59.00
2019-03-19T10:26:18.148Z,59.40
2019-03-19T10:28:47.904Z,59.40
2019-03-19T10:31:17.287Z,58.50
2019-03-19T10:33:46.574Z,57.30
2019-03-19T10:36:15.340Z,57.00
2019-03-19T10:38:44.991Z,57.50
2019-03-19T10:41:13.770Z,56.70
2019-03-19T10:43:42.819Z,57.20
2019-03-19T10:46:11.888Z,57.70
2019-03-19T10:48:40.663Z,56.20
2019-03-19T10:51:09.513Z,56.30
2019-03-19T10:53:38.642Z,54.60
2019-03-19T10:56:07.788Z,54.70
2019-03-19T10:58:37.205Z,55.10
2019-03-19T11:01:06.255Z,55.40
2019-03-19T11:03:35.266Z,56.20
2019-03-19T11:06:04.142Z,55.50
2019-03-19T11:08:33.456Z,55.90
2019-03-19T11:11:03.600Z,55.50
2019-03-19T11:13:33.137Z,55.80
2019-03-19T11:16:02.016Z,56.70
2019-03-19T11:18:31.418Z,56.70
2019-03-19T11:21:00.513Z,57.40
2019-03-19T11:23:29.817Z,57.20
2019-03-19T11:25:59.125Z,58.10
2019-03-19T11:28:28.415Z,58.10
2019-03-19T11:30:57.525Z,56.80
2019-03-19T11:33:26.700Z,56.10
2019-03-19T11:35:55.589Z,56.00
2019-03-19T11:38:24.377Z,56.00
2019-03-19T11:40:53.162Z,55.40
2019-03-19T11:43:22.582Z,55.50
2019-03-19T11:45:51.448Z,55.70
2019-03-19T11:48:20.479Z,55.20
2019-03-19T11:50:49.840Z,55.20
2019-03-19T11:53:18.623Z,55.10
2019-03-19T11:55:47.423Z,55.60
2019-03-19T11:58:16.506Z,54.50
2019-03-19T12:00:47.953Z,54.10
2019-03-19T12:03:16.983Z,54.10
2019-03-19T12:05:45.859Z,54.20
2019-03-19T12:08:15.042Z,54.60
2019-03-19T12:10:44.305Z,54.80
2019-03-19T12:13:13.152Z,55.70
2019-03-19T12:15:42.254Z,54.30
2019-03-19T12:18:11.455Z,53.40
2019-03-19T12:20:40.843Z,53.20
2019-03-19T12:23:10.262Z,53.30
2019-03-19T12:25:39.464Z,51.90
2019-03-19T12:28:08.643Z,51.30
2019-03-19T12:30:37.728Z,50.20
2019-03-19T12:33:06.503Z,49.40
2019-03-19T12:35:35.268Z,48.90
2019-03-19T12:38:04.083Z,50.40
2019-03-19T12:40:37.370Z,50.80
2019-03-19T12:43:03.884Z,51.10
2019-03-19T12:45:32.647Z,51.30
2019-03-19T12:48:01.429Z,50.50
2019-03-19T12:50:30.211Z,50.60
2019-03-19T12:52:59.005Z,50.50
2019-03-19T12:55:28.094Z,50.40
2019-03-19T12:57:57.459Z,50.60
2019-03-19T13:00:34.161Z,51.40
2019-03-19T13:02:57.509Z,51.10
2019-03-19T13:05:26.603Z,50.90
2019-03-19T13:07:55.726Z,50.90
2019-03-19T13:10:24.996Z,51.30
2019-03-19T13:12:53.957Z,50.80
2019-03-19T13:15:23.205Z,51.00
2019-03-19T13:17:51.980Z,49.70
2019-03-19T13:20:20.785Z,50.90
2019-03-19T13:22:50.277Z,50.70
2019-03-19T13:25:19.476Z,51.60
2019-03-19T13:27:48.543Z,50.80
2019-03-19T13:30:18.609Z,50.10
2019-03-19T13:32:48.293Z,49.70
2019-03-19T13:35:17.561Z,49.70
2019-03-19T13:37:46.433Z,49.70
2019-03-19T13:40:16.292Z,49.20
2019-03-19T13:42:45.348Z,50.10
2019-03-19T13:45:15.597Z,50.20
2019-03-19T13:47:45.009Z,50.20
2019-03-19T13:50:15.040Z,49.80
2019-03-19T13:52:43.922Z,49.90
2019-03-19T13:55:13.945Z,50.00
2019-03-19T13:57:42.842Z,50.00
2019-03-19T14:00:13.391Z,50.50
2019-03-19T14:02:42.966Z,51.40
2019-03-19T14:05:12.021Z,52.00
2019-03-19T14:07:40.926Z,50.70
2019-03-19T14:10:10.300Z,49.70
2019-03-19T14:12:39.342Z,50.20
2019-03-19T14:15:10.215Z,50.50
2019-03-19T14:17:38.994Z,50.70
2019-03-19T14:20:09.861Z,50.70
2019-03-19T14:22:38.891Z,51.60
2019-03-19T14:25:08.147Z,51.20
2019-03-19T14:27:37.293Z,51.50
2019-03-19T14:30:07.801Z,51.40
2019-03-19T14:32:36.918Z,50.50
2019-03-19T14:35:06.150Z,51.00
2019-03-19T14:37:35.637Z,50.80
2019-03-19T14:40:05.670Z,50.60
2019-03-19T14:42:34.509Z,50.10
2019-03-19T14:45:03.351Z,50.40
2019-03-19T14:47:32.813Z,49.90
2019-03-19T14:50:01.608Z,50.10
2019-03-19T14:52:30.400Z,50.20
2019-03-19T14:54:59.549Z,50.10
2019-03-19T14:57:28.406Z,49.80
2019-03-19T14:59:57.188Z,50.10
2019-03-19T15:02:26.394Z,49.90
2019-03-19T15:04:55.464Z,47.90
2019-03-19T15:07:24.233Z,48.90
2019-03-19T15:09:53.417Z,49.10
2019-03-19T15:12:22.552Z,49.10
2019-03-19T15:14:51.312Z,49.10
2019-03-19T15:17:20.128Z,49.20
2019-03-19T15:19:48.932Z,49.10
2019-03-19T15:22:17.700Z,49.40
2019-03-19T15:24:46.464Z,50.00
2019-03-19T15:27:16.110Z,50.20
2019-03-19T15:29:45.289Z,50.20
2019-03-19T15:32:14.080Z,50.40
2019-03-19T15:34:42.831Z,50.60
2019-03-19T15:37:11.962Z,51.10
2019-03-19T15:39:41.090Z,51.00
2019-03-19T15:42:09.871Z,51.00
2019-03-19T15:44:38.947Z,51.10
2019-03-19T15:47:07.829Z,51.10
2019-03-19T15:49:38.373Z,51.20
2019-03-19T15:52:07.767Z,50.90
2019-03-19T15:54:36.948Z,50.90
2019-03-19T15:57:06.368Z,50.40
2019-03-19T15:59:35.168Z,50.40
2019-03-19T16:02:04.128Z,50.70
2019-03-19T16:04:33.533Z,50.50
2019-03-19T16:07:02.326Z,50.80
2019-03-19T16:09:31.102Z,50.60
2019-03-19T16:12:00.172Z,50.60
2019-03-19T16:14:28.931Z,50.60
2019-03-19T16:16:57.738Z,50.00
2019-03-19T16:19:27.096Z,49.90
2019-03-19T16:21:56.193Z,49.30
2019-03-19T16:24:25.531Z,49.40
2019-03-19T16:26:56.440Z,49.80
2019-03-19T16:29:25.870Z,49.00
2019-03-19T16:31:55.035Z,49.60
2019-03-19T16:34:24.528Z,49.60
2019-03-19T16:36:53.616Z,49.70
2019-03-19T16:39:23.303Z,50.00
2019-03-19T16:41:52.855Z,50.00
2019-03-19T16:44:22.052Z,49.80
2019-03-19T16:46:51.200Z,49.50
2019-03-19T16:49:20.266Z,49.70
2019-03-19T16:51:49.059Z,49.90
2019-03-19T16:54:18.219Z,50.00
2019-03-19T16:56:47.302Z,50.00
2019-03-19T16:59:16.387Z,50.30
2019-03-19T17:01:45.622Z,50.20
2019-03-19T17:04:14.707Z,50.50
2019-03-19T17:06:43.751Z,50.50
2019-03-19T17:09:12.899Z,50.70
2019-03-19T17:11:41.759Z,51.30
2019-03-19T17:14:10.956Z,50.60
2019-03-19T17:16:39.751Z,50.90
2019-03-19T17:19:09.443Z,50.90
2019-03-19T17:21:38.877Z,51.40
2019-03-19T17:24:08.397Z,51.00
2019-03-19T17:26:37.771Z,50.70
2019-03-19T17:29:06.557Z,50.50
2019-03-19T17:31:35.673Z,49.70
2019-03-19T17:34:04.779Z,50.00
2019-03-19T17:36:34.152Z,50.30
2019-03-19T17:39:03.341Z,50.40
2019-03-19T17:41:32.198Z,50.90
2019-03-19T17:44:01.787Z,49.80
2019-03-19T17:46:30.571Z,49.80
2019-03-19T17:48:59.707Z,50.10
2019-03-19T17:51:28.498Z,49.80
2019-03-19T17:53:57.331Z,49.90
2019-03-19T17:56:26.095Z,50.00
2019-03-19T17:58:55.143Z,50.70
2019-03-19T18:01:23.928Z,50.60
2019-03-19T18:03:52.728Z,50.20
2019-03-19T18:06:21.755Z,49.90
2019-03-19T18:08:50.847Z,50.30
2019-03-19T18:11:19.966Z,50.30
2019-03-19T18:13:49.053Z,50.20
2019-03-19T18:16:18.166Z,50.40
2019-03-19T18:18:47.207Z,50.60
2019-03-19T18:21:16.536Z,50.30
2019-03-19T18:23:45.636Z,50.50
2019-03-19T18:26:14.416Z,50.50
2019-03-19T18:28:43.293Z,50.70
2019-03-19T18:31:12.830Z,50.90
2019-03-19T18:33:41.875Z,51.00
2019-03-19T18:36:10.910Z,51.00
2019-03-19T18:38:39.737Z,51.40
2019-03-19T18:41:08.894Z,51.50
2019-03-19T18:43:37.685Z,51.90
2019-03-19T18:46:06.437Z,51.90
2019-03-19T18:48:35.295Z,52.10
2019-03-19T18:51:04.045Z,52.20
2019-03-19T18:53:32.803Z,52.10
2019-03-19T18:56:01.608Z,52.10
2019-03-19T18:58:30.743Z,52.30
2019-03-19T19:00:59.503Z,52.30
2019-03-19T19:03:28.309Z,52.40
2019-03-19T19:05:57.489Z,52.00
2019-03-19T19:08:26.245Z,52.00
2019-03-19T19:10:55.540Z,52.20
2019-03-19T19:13:24.971Z,52.80
2019-03-19T19:15:54.084Z,53.00
2019-03-19T19:18:23.105Z,53.30
2019-03-19T19:20:51.984Z,53.30
2019-03-19T19:23:20.763Z,52.80
2019-03-19T19:25:49.568Z,52.90
2019-03-19T19:28:18.357Z,52.90
2019-03-19T19:30:47.861Z,53.20
2019-03-19T19:33:16.621Z,53.30
2019-03-19T19:35:45.427Z,53.00
2019-03-19T19:38:14.498Z,52.80
2019-03-19T19:40:43.543Z,53.00
2019-03-19T19:43:12.620Z,53.40
2019-03-19T19:45:41.683Z,53.90
2019-03-19T19:48:10.456Z,53.30
2019-03-19T19:50:39.233Z,53.60
2019-03-19T19:53:08.015Z,54.20
2019-03-19T19:55:36.803Z,54.20
2019-03-19T19:58:05.608Z,54.10
2019-03-19T20:00:34.595Z,54.60
2019-03-19T20:03:11.886Z,54.60
2019-03-19T20:05:34.292Z,54.60
2019-03-19T20:08:03.140Z,54.70
2019-03-19T20:10:31.934Z,55.60
2019-03-19T20:13:00.996Z,55.00
2019-03-19T20:15:29.794Z,55.30
2019-03-19T20:17:58.582Z,55.50
2019-03-19T20:20:27.464Z,55.40
2019-03-19T20:22:56.219Z,56.00
2019-03-19T20:25:25.370Z,55.90
2019-03-19T20:27:54.562Z,56.10
2019-03-19T20:30:23.495Z,56.20
2019-03-19T20:32:52.320Z,55.80
2019-03-19T20:35:21.151Z,56.20
2019-03-19T20:37:51.497Z,56.20
2019-03-19T20:40:20.461Z,56.30
2019-03-19T20:42:49.359Z,56.30
2019-03-19T20:45:18.163Z,56.80
2019-03-19T20:47:47.226Z,56.70
2019-03-19T20:50:21.557Z,57.20
2019-03-19T20:52:50.763Z,57.40
2019-03-19T20:55:19.538Z,57.30
2019-03-19T20:57:48.629Z,57.30
2019-03-19T21:00:17.817Z,57.20
2019-03-19T21:02:46.761Z,57.20
2019-03-19T21:05:16.043Z,57.30
2019-03-19T21:07:45.296Z,57.20
2019-03-19T21:10:18.507Z,57.20
2019-03-19T21:12:47.945Z,57.30
2019-03-19T21:15:18.573Z,57.30
2019-03-19T21:17:48.051Z,57.30
2019-03-19T21:20:16.961Z,57.30
2019-03-19T21:22:45.801Z,57.20
2019-03-19T21:25:14.767Z,57.30
2019-03-19T21:27:43.862Z,57.20
2019-03-19T21:30:13.030Z,57.60
2019-03-19T21:32:42.100Z,57.60
2019-03-19T21:35:11.406Z,57.50
2019-03-19T21:37:40.369Z,57.30
2019-03-19T21:40:10.999Z,57.60
2019-03-19T21:42:39.837Z,57.50
2019-03-19T21:45:10.000Z,57.40
2019-03-19T21:47:39.082Z,57.80
2019-03-19T21:50:10.043Z,57.90
2019-03-19T21:52:39.164Z,57.90
2019-03-19T21:55:08.206Z,57.90
2019-03-19T21:57:37.072Z,57.80
2019-03-19T22:00:07.686Z,57.70
2019-03-19T22:02:36.463Z,57.70
2019-03-19T22:05:06.098Z,57.70
2019-03-19T22:07:34.977Z,57.60
2019-03-19T22:10:04.654Z,57.50
2019-03-19T22:12:33.469Z,57.50
2019-03-19T22:15:02.321Z,57.40
2019-03-19T22:17:31.464Z,57.20
2019-03-19T22:20:00.336Z,56.90
2019-03-19T22:22:29.207Z,56.90
2019-03-19T22:24:58.009Z,57.00
2019-03-19T22:27:26.831Z,56.90
2019-03-19T22:29:55.684Z,57.00
2019-03-19T22:32:24.464Z,56.60
2019-03-19T22:34:53.573Z,56.30
2019-03-19T22:37:22.802Z,56.30
2019-03-19T22:39:51.583Z,56.20
2019-03-19T22:42:20.393Z,56.10
2019-03-19T22:44:49.493Z,56.10
2019-03-19T22:47:18.295Z,56.20
2019-03-19T22:49:47.144Z,56.30
2019-03-19T22:52:16.506Z,56.40
2019-03-19T22:54:45.337Z,56.10
2019-03-19T22:57:14.409Z,56.30
2019-03-19T22:59:43.171Z,56.30
2019-03-19T23:02:12.116Z,56.60
2019-03-19T23:04:40.966Z,56.70
2019-03-19T23:07:09.862Z,56.80
2019-03-19T23:09:38.716Z,56.50
2019-03-19T23:12:08.057Z,56.90
2019-03-19T23:14:36.904Z,57.00
2019-03-19T23:17:05.718Z,57.10
2019-03-19T23:19:34.924Z,57.20
2019-03-19T23:22:03.999Z,57.30
2019-03-19T23:24:33.064Z,57.30
2019-03-19T23:27:02.214Z,57.30
2019-03-19T23:29:31.137Z,57.40
2019-03-19T23:32:00.218Z,57.70
2019-03-19T23:34:38.225Z,57.90
2019-03-19T23:36:59.548Z,57.90
2019-03-19T23:39:28.607Z,58.10
2019-03-19T23:41:57.737Z,58.60
2019-03-19T23:44:26.485Z,58.80
2019-03-19T23:46:57.585Z,58.60
2019-03-19T23:49:26.076Z,58.80
2019-03-19T23:51:54.870Z,59.10
2019-03-19T23:54:23.717Z,59.40
2019-03-19T23:56:52.567Z,59.20
2019-03-19T23:59:21.326Z,59.10
